| time (UTC) | temp F | wind direction | speed knots | gust knots | rain 1hr in | rain 24hr in | rain mn in | humidity % | barometer mb |
| 20260508194556 | 72 | 226 | 0.0 | 7.0 | 0.00 | 0.00 | 0.00 | 43 | 1015.0 |
| 20260508193102 | 72 | 118 | 1.7 | 4.3 | 0.00 | 0.00 | 0.00 | 43 | 1015.0 |
| 20260508191557 | 72 | 95 | 1.7 | 5.2 | 0.00 | 0.00 | 0.00 | 42 | 1015.3 |
| 20260508184625 | 69 | 224 | 0.9 | 4.3 | 0.00 | 0.00 | 0.00 | 44 | 1015.5 |
| 20260508183057 | 70 | 71 | 0.9 | 9.6 | 0.00 | 0.00 | 0.00 | 44 | 1015.6 |
| 20260508181605 | 70 | 284 | 0.9 | 3.5 | 0.00 | 0.00 | 0.00 | 43 | 1016.0 |
| 20260508180056 | 69 | 211 | 0.9 | 5.2 | 0.00 | 0.00 | 0.00 | 42 | 1016.2 |
| 20260508174555 | 70 | 144 | 1.7 | 5.2 | 0.00 | 0.00 | 0.00 | 39 | 1016.2 |
| 20260508173056 | 70 | 286 | 0.9 | 5.2 | 0.00 | 0.00 | 0.00 | 35 | 1016.7 |
| 20260508171558 | 69 | 274 | 1.7 | 9.6 | 0.00 | 0.00 | 0.00 | 35 | 1016.9 |
| 20260508170058 | 69 | 327 | 0.9 | 4.3 | 0.00 | 0.00 | 0.00 | 36 | 1017.1 |
| 20260508164604 | 68 | 229 | 0.9 | 7.8 | 0.00 | 0.00 | 0.00 | 39 | 1017.3 |
| 20260508163100 | 67 | 329 | 2.6 | 7.0 | 0.00 | 0.00 | 0.00 | 40 | 1017.5 |
| 20260508161556 | 67 | 203 | 0.9 | 6.1 | 0.00 | 0.00 | 0.00 | 38 | 1017.6 |
| 20260508160056 | 66 | 0 | 0.9 | 6.1 | 0.00 | 0.00 | 0.00 | 38 | 1017.9 |
| 20260508154557 | 66 | 252 | 0.0 | 4.3 | 0.00 | 0.00 | 0.00 | 43 | 1018.2 |
| 20260508153055 | 66 | 5 | 1.7 | 7.0 | 0.00 | 0.00 | 0.00 | 48 | 1018.2 |
| 20260508151603 | 64 | 332 | 2.6 | 5.2 | 0.00 | 0.00 | 0.00 | 49 | 1018.2 |
| 20260508144622 | 63 | 355 | 0.9 | 6.1 | 0.00 | 0.00 | 0.00 | 53 | 1018.5 |
| 20260508143111 | 61 | 284 | 0.0 | 4.3 | 0.00 | 0.00 | 0.00 | 56 | 1018.6 |
| 20260508141607 | 61 | 259 | 0.9 | 5.2 | 0.00 | 0.00 | 0.00 | 58 | 1018.5 |
| 20260508140058 | 60 | 113 | 1.7 | 3.5 | 0.00 | 0.00 | 0.00 | 59 | 1018.7 |
| 20260508134600 | 58 | 0 | 0.0 | 2.6 | 0.00 | 0.00 | 0.00 | 64 | 1018.5 |
| 20260508133122 | 57 | 333 | 0.0 | 2.6 | 0.00 | 0.00 | 0.00 | 73 | 1018.6 |
| 20260508131558 | 56 | 0 | 0.0 | 0.0 | 0.00 | 0.00 | 0.00 | 78 | 1018.6 |
| 20260508130106 | 54 | 0 | 0.0 | 0.0 | 0.00 | 0.00 | 0.00 | 82 | 1018.4 |
| 20260508124559 | 52 | 0 | 0.0 | 0.0 | 0.00 | 0.02 | 0.00 | 86 | 1018.5 |
| 20260508123110 | 50 | 0 | 0.0 | 0.0 | 0.00 | 0.02 | 0.00 | 90 | 1018.4 |
| 20260508121602 | 48 | 0 | 0.0 | 0.0 | 0.00 | 0.02 | 0.00 | 94 | 1018.3 |
| 20260508120056 | 46 | 0 | 0.0 | 0.0 | 0.00 | 0.02 | 0.00 | 97 | 1018.1 |
| 20260508114554 | 44 | 0 | 0.0 | 0.0 | 0.00 | 0.16 | 0.00 | 97 | 1018.1 |
| 20260508113108 | 42 | 0 | 0.0 | 0.0 | 0.00 | 0.16 | 0.00 | 96 | 1017.7 |
| 20260508111606 | 41 | 0 | 0.0 | 0.0 | 0.00 | 0.16 | 0.00 | 96 | 1017.5 |
| 20260508110059 | 40 | 0 | 0.0 | 0.0 | 0.00 | 0.16 | 0.00 | 96 | 1017.3 |
| 20260508104608 | 39 | 0 | 0.0 | 0.0 | 0.00 | 0.18 | 0.00 | 95 | 1017.3 |
| 20260508103102 | 40 | 0 | 0.0 | 0.0 | 0.00 | 0.18 | 0.00 | 95 | 1016.8 |
| 20260508101615 | 40 | 0 | 0.0 | 0.0 | 0.00 | 0.18 | 0.00 | 95 | 1016.5 |
| 20260508100100 | 41 | 0 | 0.0 | 0.0 | 0.00 | 0.18 | 0.00 | 95 | 1016.4 |
| 20260508094557 | 41 | 0 | 0.0 | 0.0 | 0.00 | 0.18 | 0.00 | 95 | 1016.2 |
| 20260508093057 | 41 | 0 | 0.0 | 0.0 | 0.00 | 0.18 | 0.00 | 95 | 1016.2 |
| 20260508091610 | 42 | 0 | 0.0 | 0.0 | 0.00 | 0.18 | 0.00 | 95 | 1016.1 |
| 20260508090113 | 42 | 0 | 0.0 | 0.0 | 0.00 | 0.18 | 0.00 | 95 | 1016.1 |
| 20260508084558 | 42 | 0 | 0.0 | 0.0 | 0.00 | 0.18 | 0.00 | 95 | 1015.8 |
| 20260508083058 | 43 | 0 | 0.0 | 0.0 | 0.00 | 0.18 | 0.00 | 95 | 1015.8 |
| 20260508081604 | 43 | 0 | 0.0 | 2.6 | 0.00 | 0.18 | 0.00 | 95 | 1015.7 |
| 20260508080057 | 43 | 0 | 0.0 | 0.0 | 0.00 | 0.18 | 0.00 | 95 | 1015.7 |
| 20260508074558 | 44 | 0 | 0.0 | 1.7 | 0.00 | 0.18 | 0.00 | 95 | 1015.5 |
| 20260508073105 | 44 | 0 | 0.0 | 4.3 | 0.00 | 0.18 | 0.00 | 95 | 1015.3 |
| 20260508071604 | 44 | 0 | 0.0 | 0.0 | 0.00 | 0.18 | 0.00 | 94 | 1015.4 |
| 20260508070104 | 44 | 0 | 0.0 | 0.0 | 0.00 | 0.18 | 0.00 | 95 | 1015.2 |
| 20260508064556 | 44 | 0 | 0.0 | 0.9 | 0.00 | 0.18 | 0.00 | 94 | 1015.4 |
| 20260508063059 | 45 | 0 | 0.0 | 2.6 | 0.00 | 0.18 | 0.00 | 94 | 1015.0 |
| 20260508061557 | 45 | 0 | 0.0 | 0.0 | 0.00 | 0.18 | 0.00 | 94 | 1015.0 |
| 20260508060100 | 45 | 0 | 0.0 | 0.0 | 0.00 | 0.18 | 0.00 | 93 | 1014.9 |
| 20260508054558 | 45 | 0 | 0.0 | 0.0 | 0.00 | 0.22 | 0.00 | 93 | 1014.9 |
| 20260508053119 | 46 | 0 | 0.0 | 0.0 | 0.00 | 0.22 | 0.00 | 92 | 1014.9 |
| 20260508051559 | 46 | 0 | 0.0 | 0.0 | 0.00 | 0.22 | 0.00 | 93 | 1014.9 |
| 20260508050100 | 47 | 0 | 0.0 | 2.6 | 0.00 | 0.22 | 0.00 | 92 | 1014.6 |
| 20260508044559 | 47 | 0 | 0.0 | 0.0 | 0.00 | 0.27 | 0.00 | 92 | 1014.5 |
| 20260508043104 | 48 | 0 | 0.0 | 0.9 | 0.00 | 0.27 | 0.00 | 91 | 1014.6 |
| 20260508041617 | 48 | 0 | 0.0 | 0.0 | 0.00 | 0.27 | 0.00 | 90 | 1014.6 |
| 20260508040110 | 48 | 0 | 0.0 | 0.9 | 0.00 | 0.27 | 0.00 | 90 | 1014.5 |
| 20260508034603 | 49 | 0 | 0.0 | 0.9 | 0.00 | 0.27 | 0.27 | 88 | 1014.5 |
| 20260508033056 | 50 | 0 | 0.0 | 0.0 | 0.00 | 0.27 | 0.27 | 87 | 1014.6 |
| 20260508031601 | 51 | 0 | 0.0 | 0.9 | 0.00 | 0.27 | 0.27 | 86 | 1014.5 |
| 20260508030058 | 51 | 0 | 0.0 | 0.9 | 0.00 | 0.27 | 0.27 | 86 | 1014.3 |
| 20260508024606 | 51 | 0 | 0.0 | 0.9 | 0.00 | 0.31 | 0.27 | 85 | 1014.1 |
| 20260508023057 | 51 | 0 | 0.0 | 0.9 | 0.00 | 0.31 | 0.27 | 84 | 1013.8 |
| 20260508021558 | 53 | 0 | 0.0 | 0.9 | 0.00 | 0.31 | 0.27 | 83 | 1013.8 |
| 20260508020056 | 54 | 0 | 0.0 | 0.9 | 0.00 | 0.31 | 0.27 | 77 | 1013.7 |
| 20260508014602 | 55 | 103 | 0.0 | 1.7 | 0.00 | 0.34 | 0.27 | 76 | 1013.2 |
| 20260508013059 | 54 | 0 | 0.0 | 0.9 | 0.00 | 0.34 | 0.27 | 75 | 1013.1 |
| 20260508011603 | 56 | 0 | 0.0 | 1.7 | 0.00 | 0.34 | 0.27 | 72 | 1013.1 |
| 20260508010100 | 58 | 103 | 0.0 | 1.7 | 0.00 | 0.34 | 0.27 | 65 | 1012.7 |
| 20260508004604 | 59 | 0 | 0.0 | 3.5 | 0.00 | 0.45 | 0.27 | 64 | 1012.6 |
| 20260508003106 | 60 | 0 | 0.0 | 2.6 | 0.00 | 0.45 | 0.27 | 62 | 1012.3 |
| 20260508001601 | 61 | 348 | 2.6 | 9.6 | 0.00 | 0.45 | 0.27 | 59 | 1012.5 |
| 20260508000059 | 61 | 53 | 2.6 | 7.0 | 0.00 | 0.45 | 0.27 | 60 | 1012.1 |
| 20260507234558 | 62 | 9 | 0.9 | 5.2 | 0.00 | 0.51 | 0.27 | 61 | 1012.0 |
| 20260507233103 | 63 | 344 | 2.6 | 8.7 | 0.00 | 0.51 | 0.27 | 61 | 1011.7 |
| 20260507231559 | 64 | 40 | 2.6 | 12.2 | 0.00 | 0.51 | 0.27 | 60 | 1011.6 |
| 20260507224600 | 67 | 96 | 4.3 | 12.2 | 0.00 | 0.51 | 0.27 | 58 | 1011.0 |
| 20260507223101 | 68 | 10 | 2.6 | 14.8 | 0.00 | 0.51 | 0.27 | 58 | 1010.6 |
| 20260507221558 | 70 | 329 | 2.6 | 7.8 | 0.00 | 0.51 | 0.27 | 57 | 1010.2 |
| 20260507220056 | 71 | 346 | 2.6 | 9.6 | 0.00 | 0.51 | 0.27 | 56 | 1009.6 |
| 20260507214608 | 73 | 296 | 2.6 | 11.3 | 0.00 | 0.51 | 0.27 | 52 | 1009.4 |
| 20260507213105 | 73 | 20 | 2.6 | 8.7 | 0.00 | 0.51 | 0.27 | 53 | 1009.4 |
| 20260507211555 | 75 | 355 | 2.6 | 8.7 | 0.00 | 0.51 | 0.27 | 52 | 1008.9 |
| 20260507204558 | 77 | 228 | 1.7 | 7.8 | 0.00 | 0.51 | 0.27 | 51 | 1008.6 |
| 20260507203058 | 75 | 340 | 2.6 | 11.3 | 0.00 | 0.51 | 0.27 | 54 | 1008.4 |
| 20260507201558 | 78 | 325 | 2.6 | 9.6 | 0.00 | 0.51 | 0.27 | 52 | 1008.1 |
| 20260507200057 | 78 | 303 | 4.3 | 10.4 | 0.00 | 0.51 | 0.27 | 53 | 1008.1 |